createdAt,value
2022-10-18T00:00:09.196Z,65.25
2022-10-18T00:02:37.758Z,64.95
2022-10-18T00:05:04.669Z,64.86
2022-10-18T00:07:31.452Z,64.92
2022-10-18T00:09:58.147Z,64.92
2022-10-18T00:12:24.628Z,64.97
2022-10-18T00:14:51.529Z,64.87
2022-10-18T00:17:18.283Z,65.03
2022-10-18T00:19:49.634Z,64.74
2022-10-18T00:22:16.406Z,65.13
2022-10-18T00:24:44.676Z,65.07
2022-10-18T00:27:11.242Z,65.25
2022-10-18T00:29:37.852Z,64.92
2022-10-18T00:32:04.524Z,65.32
2022-10-18T00:34:31.617Z,65.17
2022-10-18T00:36:58.122Z,65.14
2022-10-18T00:39:24.589Z,65.17
2022-10-18T00:41:51.550Z,65.17
2022-10-18T00:44:18.538Z,65.05
2022-10-18T00:46:47.798Z,65.40
2022-10-18T00:49:25.094Z,65.17
2022-10-18T00:52:00.809Z,65.15
2022-10-18T00:54:29.607Z,65.00
2022-10-18T00:56:56.213Z,65.24
2022-10-18T00:59:23.507Z,65.39
2022-10-18T01:01:50.448Z,65.17
2022-10-18T01:04:19.957Z,65.19
2022-10-18T01:07:15.230Z,65.22
2022-10-18T01:09:47.389Z,65.15
2022-10-18T01:12:49.466Z,65.25
2022-10-18T01:15:21.164Z,65.27
2022-10-18T01:18:12.053Z,65.20
2022-10-18T01:21:09.864Z,65.23
2022-10-18T01:24:33.732Z,65.28
2022-10-18T01:27:29.790Z,65.12
2022-10-18T01:30:20.574Z,65.24
2022-10-18T01:32:54.029Z,65.16
2022-10-18T01:35:44.986Z,65.58
2022-10-18T01:38:17.168Z,65.06
2022-10-18T01:40:47.330Z,65.56
2022-10-18T01:43:15.906Z,65.51
2022-10-18T01:45:42.543Z,65.24
2022-10-18T01:48:11.681Z,65.20
2022-10-18T01:50:38.186Z,65.33
2022-10-18T01:53:04.638Z,65.45
2022-10-18T01:55:51.197Z,65.28
2022-10-18T01:58:40.596Z,65.65
2022-10-18T02:01:18.097Z,65.32
2022-10-18T02:03:47.737Z,65.39
2022-10-18T02:06:22.534Z,65.30
2022-10-18T02:09:02.798Z,65.47
2022-10-18T02:11:32.270Z,65.12
2022-10-18T02:14:19.492Z,65.52
2022-10-18T02:16:51.696Z,65.28
2022-10-18T02:19:38.167Z,65.36
2022-10-18T02:22:07.584Z,65.34
2022-10-18T02:24:43.207Z,65.56
2022-10-18T02:27:10.710Z,65.47
2022-10-18T02:29:38.075Z,65.08
2022-10-18T02:32:11.745Z,65.53
2022-10-18T02:34:44.949Z,65.13
2022-10-18T02:37:13.323Z,65.20
2022-10-18T02:39:45.251Z,65.58
2022-10-18T02:42:13.554Z,65.30
2022-10-18T02:44:41.916Z,65.46
2022-10-18T02:47:10.589Z,65.26
2022-10-18T02:49:37.117Z,65.41
2022-10-18T02:52:03.891Z,65.16
2022-10-18T02:54:31.664Z,65.42
2022-10-18T02:56:58.327Z,65.31
2022-10-18T02:59:24.823Z,65.52
2022-10-18T03:01:51.389Z,65.39
2022-10-18T03:04:21.169Z,65.60
2022-10-18T03:06:47.803Z,65.46
2022-10-18T03:09:14.284Z,65.49
2022-10-18T03:11:40.760Z,65.46
2022-10-18T03:14:14.202Z,65.18
2022-10-18T03:16:41.318Z,65.31
2022-10-18T03:19:07.870Z,65.15
2022-10-18T03:21:34.395Z,65.30
2022-10-18T03:24:03.269Z,65.14
2022-10-18T03:26:29.749Z,65.40
2022-10-18T03:28:56.583Z,65.52
2022-10-18T03:31:23.336Z,65.61
2022-10-18T03:33:49.878Z,65.36
2022-10-18T03:36:16.492Z,65.73
2022-10-18T03:38:43.138Z,65.55
2022-10-18T03:41:09.726Z,65.63
2022-10-18T03:43:36.258Z,65.64
2022-10-18T03:46:02.851Z,65.40
2022-10-18T03:48:29.318Z,65.76
2022-10-18T03:50:55.834Z,65.62
2022-10-18T03:53:22.315Z,65.65
2022-10-18T03:55:56.087Z,65.80
2022-10-18T03:58:23.399Z,65.89
2022-10-18T04:00:51.438Z,65.61
2022-10-18T04:03:19.043Z,65.53
2022-10-18T04:05:50.713Z,65.66
2022-10-18T04:08:17.931Z,65.57
2022-10-18T04:10:45.605Z,65.63
2022-10-18T04:13:12.266Z,65.64
2022-10-18T04:15:39.967Z,65.60
2022-10-18T04:18:06.542Z,65.85
2022-10-18T04:20:33.063Z,65.53
2022-10-18T04:22:59.506Z,65.73
2022-10-18T04:25:27.096Z,65.74
2022-10-18T04:27:53.578Z,65.55
2022-10-18T04:30:20.320Z,65.41
2022-10-18T04:32:46.892Z,65.41
2022-10-18T04:35:13.798Z,65.33
2022-10-18T04:37:40.341Z,65.51
2022-10-18T04:40:07.944Z,65.54
2022-10-18T04:42:34.450Z,65.51
2022-10-18T04:45:02.399Z,65.59
2022-10-18T04:47:29.087Z,65.28
2022-10-18T04:49:55.780Z,65.50
2022-10-18T04:52:22.253Z,65.48
2022-10-18T04:54:51.566Z,65.57
2022-10-18T04:57:18.102Z,65.57
2022-10-18T04:59:44.703Z,65.80
2022-10-18T05:02:11.390Z,65.62
2022-10-18T05:04:38.438Z,65.68
2022-10-18T05:07:06.610Z,65.50
2022-10-18T05:09:33.701Z,65.70
2022-10-18T05:12:00.238Z,65.73
2022-10-18T05:14:28.411Z,65.54
2022-10-18T05:16:54.917Z,65.55
2022-10-18T05:19:21.525Z,65.75
2022-10-18T05:21:48.087Z,65.80
2022-10-18T05:24:16.350Z,65.61
2022-10-18T05:26:42.873Z,65.52
2022-10-18T05:29:09.543Z,65.78
2022-10-18T05:31:36.123Z,65.76
2022-10-18T05:34:05.775Z,65.67
2022-10-18T05:36:32.308Z,65.66
2022-10-18T05:39:01.128Z,65.91
2022-10-18T05:41:30.991Z,65.50
2022-10-18T05:44:06.355Z,65.48
2022-10-18T05:46:32.953Z,65.67
2022-10-18T05:48:59.525Z,65.48
2022-10-18T05:51:25.984Z,65.72
2022-10-18T05:54:00.676Z,65.74
2022-10-18T05:56:28.715Z,65.75
2022-10-18T05:58:55.294Z,66.12
2022-10-18T06:01:21.833Z,66.05
2022-10-18T06:03:48.365Z,65.97
2022-10-18T06:06:15.503Z,65.94
2022-10-18T06:08:43.567Z,65.96
2022-10-18T06:11:15.265Z,66.27
2022-10-18T06:13:43.854Z,65.94
2022-10-18T06:16:12.386Z,66.35
2022-10-18T06:18:39.670Z,65.98
2022-10-18T06:21:06.785Z,66.10
2022-10-18T06:23:33.717Z,66.20
2022-10-18T06:26:01.966Z,65.97
2022-10-18T06:28:29.870Z,66.02
2022-10-18T06:30:57.910Z,66.27
2022-10-18T06:33:24.583Z,66.24
2022-10-18T06:35:59.871Z,66.19
2022-10-18T06:38:27.090Z,66.30
2022-10-18T06:40:54.529Z,66.24
2022-10-18T06:43:21.762Z,66.11
2022-10-18T06:45:49.070Z,66.40
2022-10-18T06:48:16.446Z,66.37
2022-10-18T06:50:43.415Z,66.26
2022-10-18T06:53:10.027Z,66.59
2022-10-18T06:55:39.796Z,66.41
2022-10-18T06:58:06.735Z,66.20
2022-10-18T07:00:33.249Z,66.42
2022-10-18T07:02:59.814Z,66.67
2022-10-18T07:05:26.417Z,66.57
2022-10-18T07:07:56.340Z,66.63
2022-10-18T07:10:23.996Z,66.62
2022-10-18T07:12:53.514Z,66.52
2022-10-18T07:15:24.534Z,66.80
2022-10-18T07:17:51.250Z,66.46
2022-10-18T07:20:17.845Z,66.54
2022-10-18T07:22:44.380Z,66.73
2022-10-18T07:25:12.359Z,66.72
2022-10-18T07:27:43.028Z,66.57
2022-10-18T07:30:11.029Z,66.64
2022-10-18T07:32:37.560Z,66.75
2022-10-18T07:35:04.594Z,66.84
2022-10-18T07:37:31.818Z,66.84
2022-10-18T07:39:58.595Z,66.74
2022-10-18T07:42:25.099Z,66.91
2022-10-18T07:44:51.663Z,66.76
2022-10-18T07:47:18.176Z,66.64
2022-10-18T07:49:44.716Z,66.92
2022-10-18T07:52:11.943Z,67.08
2022-10-18T07:54:42.695Z,66.95
2022-10-18T07:57:09.172Z,67.16
2022-10-18T07:59:35.676Z,67.07
2022-10-18T08:02:02.186Z,66.83
2022-10-18T08:04:30.298Z,66.99
2022-10-18T08:06:56.844Z,67.11
2022-10-18T08:09:23.354Z,66.94
2022-10-18T08:11:49.867Z,67.13
2022-10-18T08:14:17.295Z,66.81
2022-10-18T08:16:43.880Z,66.80
2022-10-18T08:19:10.673Z,66.87
2022-10-18T08:21:37.195Z,66.99
2022-10-18T08:24:05.610Z,66.72
2022-10-18T08:26:32.176Z,67.13
2022-10-18T08:29:17.763Z,66.93
2022-10-18T08:31:45.336Z,66.82
2022-10-18T08:34:19.511Z,66.67
2022-10-18T08:36:46.394Z,66.40
2022-10-18T08:39:12.905Z,66.42
2022-10-18T08:42:11.870Z,66.32
2022-10-18T08:44:49.567Z,66.06
2022-10-18T08:47:41.700Z,66.07
2022-10-18T08:50:16.279Z,65.96
2022-10-18T08:53:10.612Z,66.25
2022-10-18T08:55:45.328Z,66.30
2022-10-18T08:58:19.442Z,66.53
2022-10-18T09:01:23.470Z,66.21
2022-10-18T09:04:21.549Z,66.11
2022-10-18T09:07:16.522Z,65.80
2022-10-18T09:09:54.545Z,65.35
2022-10-18T09:12:45.507Z,65.38
2022-10-18T09:15:29.872Z,64.99
2022-10-18T09:18:04.654Z,64.75
2022-10-18T09:20:47.824Z,64.54
2022-10-18T09:23:23.043Z,63.98
2022-10-18T09:26:00.963Z,64.12
2022-10-18T09:28:49.724Z,64.04
2022-10-18T09:31:28.798Z,63.63
2022-10-18T09:34:23.212Z,63.31
2022-10-18T09:36:52.458Z,63.29
2022-10-18T09:39:23.671Z,63.16
2022-10-18T09:41:57.785Z,62.99
2022-10-18T09:44:41.860Z,62.43
2022-10-18T09:47:16.815Z,62.52
2022-10-18T09:49:52.127Z,62.25
2022-10-18T09:52:42.423Z,61.83
2022-10-18T09:55:30.708Z,61.67
2022-10-18T09:58:02.415Z,61.54
2022-10-18T10:00:33.482Z,61.52
2022-10-18T10:03:01.919Z,61.02
2022-10-18T10:05:28.440Z,61.00
2022-10-18T10:07:59.806Z,60.81
2022-10-18T10:10:29.093Z,60.65
2022-10-18T10:13:17.289Z,60.13
2022-10-18T10:15:54.017Z,59.83
2022-10-18T10:18:23.353Z,59.73
2022-10-18T10:20:58.182Z,59.29
2022-10-18T10:23:33.012Z,58.89
2022-10-18T10:26:04.957Z,58.64
2022-10-18T10:28:37.498Z,58.18
2022-10-18T10:31:25.890Z,57.63
2022-10-18T10:34:13.144Z,57.47
2022-10-18T10:36:54.417Z,56.97
2022-10-18T10:39:23.697Z,56.80
2022-10-18T10:41:57.962Z,56.46
2022-10-18T10:44:32.121Z,56.33
2022-10-18T10:46:59.436Z,55.89
2022-10-18T10:49:47.509Z,55.58
2022-10-18T10:52:28.031Z,55.33
2022-10-18T10:55:11.368Z,54.86
2022-10-18T10:57:47.157Z,54.77
2022-10-18T11:00:52.253Z,54.30
2022-10-18T11:03:29.075Z,54.22
2022-10-18T11:06:01.842Z,53.98
2022-10-18T11:08:34.025Z,53.58
2022-10-18T11:11:26.698Z,52.96
2022-10-18T11:17:06.962Z,52.27
2022-10-18T11:19:43.093Z,52.16
2022-10-18T11:22:15.064Z,51.97
2022-10-18T11:24:43.534Z,51.73
2022-10-18T11:27:32.655Z,51.24
2022-10-18T11:30:21.043Z,51.38
2022-10-18T11:33:07.888Z,51.02
2022-10-18T11:35:47.434Z,51.10
2022-10-18T11:38:30.914Z,50.70
2022-10-18T11:41:23.425Z,49.94
2022-10-18T11:44:37.236Z,49.76
2022-10-18T11:47:37.027Z,49.54
2022-10-18T11:50:36.085Z,49.25
2022-10-18T11:53:17.978Z,48.92
2022-10-18T11:55:53.631Z,49.02
2022-10-18T11:59:11.599Z,48.56
2022-10-18T12:01:50.463Z,48.69
2022-10-18T12:04:27.949Z,48.27
2022-10-18T12:06:57.265Z,47.96
2022-10-18T12:09:28.779Z,47.48
2022-10-18T12:12:07.818Z,46.79
2022-10-18T12:14:42.397Z,46.63
2022-10-18T12:17:46.124Z,46.44
2022-10-18T12:20:26.018Z,46.29
2022-10-18T12:23:10.550Z,46.07
2022-10-18T12:25:45.582Z,45.85
2022-10-18T12:28:30.899Z,46.36
2022-10-18T12:31:07.583Z,46.48
2022-10-18T12:33:38.580Z,46.28
2022-10-18T12:36:20.822Z,45.77
2022-10-18T12:39:11.518Z,45.79
2022-10-18T12:41:38.590Z,45.63
2022-10-18T12:44:20.989Z,45.41
2022-10-18T12:46:56.063Z,45.25
2022-10-18T12:49:38.195Z,45.57
2022-10-18T12:52:24.749Z,45.21
2022-10-18T12:55:21.512Z,44.67
2022-10-18T12:57:54.135Z,44.83
2022-10-18T13:00:29.544Z,44.55
2022-10-18T13:03:14.329Z,44.22
2022-10-18T13:05:57.815Z,44.21
2022-10-18T13:08:27.071Z,44.03
2022-10-18T13:11:08.997Z,43.50
2022-10-18T13:13:59.703Z,43.43
2022-10-18T13:16:42.646Z,43.65
2022-10-18T13:19:34.847Z,43.71
2022-10-18T13:22:25.568Z,43.88
2022-10-18T13:25:13.372Z,43.57
2022-10-18T13:28:00.223Z,43.17
2022-10-18T13:30:50.991Z,43.05
2022-10-18T13:33:32.161Z,43.18
2022-10-18T13:36:04.034Z,43.12
2022-10-18T13:38:38.886Z,43.00
2022-10-18T13:41:32.774Z,42.91
2022-10-18T13:44:40.039Z,42.87
2022-10-18T13:47:07.095Z,42.72
2022-10-18T13:49:39.471Z,42.85
2022-10-18T13:52:31.360Z,42.82
2022-10-18T13:55:18.853Z,42.88
2022-10-18T13:58:07.834Z,42.87
2022-10-18T14:00:52.967Z,42.63
2022-10-18T14:03:58.532Z,42.35
2022-10-18T14:06:28.992Z,42.46
2022-10-18T14:12:35.712Z,42.13
2022-10-18T14:15:34.610Z,42.46
2022-10-18T14:18:12.381Z,42.61
2022-10-18T14:21:01.252Z,42.44
2022-10-18T14:23:35.173Z,42.19
2022-10-18T14:26:18.478Z,41.96
2022-10-18T14:28:59.594Z,42.15
2022-10-18T14:31:27.250Z,41.91
2022-10-18T14:33:58.895Z,41.81
2022-10-18T14:36:42.406Z,41.93
2022-10-18T14:39:21.062Z,41.95
2022-10-18T14:41:53.430Z,42.31
2022-10-18T14:44:31.417Z,41.85
2022-10-18T14:47:16.381Z,42.30
2022-10-18T14:49:44.850Z,42.40
2022-10-18T14:52:15.990Z,42.39
2022-10-18T14:54:47.074Z,42.29
2022-10-18T14:57:25.165Z,42.22
2022-10-18T14:59:57.060Z,42.33
2022-10-18T15:02:28.334Z,42.20
2022-10-18T15:05:20.650Z,42.62
2022-10-18T15:07:48.431Z,42.62
2022-10-18T15:10:20.028Z,42.77
2022-10-18T15:13:11.340Z,42.93
2022-10-18T15:15:35.070Z,43.36
2022-10-18T15:18:01.939Z,43.35
2022-10-18T15:20:31.871Z,43.49
2022-10-18T15:23:29.579Z,43.78
2022-10-18T15:26:08.216Z,43.84
2022-10-18T15:28:39.355Z,43.76
2022-10-18T15:31:06.866Z,43.61
2022-10-18T15:33:36.500Z,43.88
2022-10-18T15:36:26.062Z,43.88
2022-10-18T15:38:52.680Z,43.71
2022-10-18T15:41:39.512Z,44.06
2022-10-18T15:44:34.793Z,43.89
2022-10-18T15:47:13.410Z,44.20
2022-10-18T15:49:46.222Z,44.22
2022-10-18T15:52:21.952Z,44.16
2022-10-18T15:57:20.308Z,44.72
2022-10-18T15:59:54.923Z,44.56
2022-10-18T16:02:21.514Z,44.65
2022-10-18T16:04:49.806Z,45.11
2022-10-18T16:07:16.514Z,45.33
2022-10-18T16:09:43.250Z,45.41
2022-10-18T16:12:09.802Z,45.40
2022-10-18T16:14:37.930Z,45.86
2022-10-18T16:17:06.765Z,46.22
2022-10-18T16:19:33.851Z,46.15
2022-10-18T16:22:06.149Z,46.37
2022-10-18T16:24:33.941Z,46.03
2022-10-18T16:27:00.457Z,46.46
2022-10-18T16:29:31.876Z,46.69
2022-10-18T16:31:59.842Z,46.91
2022-10-18T16:34:29.453Z,47.00
2022-10-18T16:36:55.942Z,47.06
2022-10-18T16:39:23.423Z,47.10
2022-10-18T16:41:51.188Z,47.13
2022-10-18T16:44:20.051Z,47.39
2022-10-18T16:46:50.985Z,47.43
2022-10-18T16:49:24.032Z,47.40
2022-10-18T16:51:52.512Z,47.49
2022-10-18T16:54:23.670Z,47.65
2022-10-18T16:56:51.102Z,47.65
2022-10-18T16:59:28.937Z,47.84
2022-10-18T17:01:55.727Z,47.88
2022-10-18T17:04:27.232Z,48.12
2022-10-18T17:06:55.255Z,47.92
2022-10-18T17:09:22.117Z,48.09
2022-10-18T17:11:53.742Z,48.25
2022-10-18T17:14:21.864Z,48.43
2022-10-18T17:16:52.297Z,48.42
2022-10-18T17:19:22.380Z,48.71
2022-10-18T17:21:49.168Z,48.60
2022-10-18T17:24:16.970Z,49.01
2022-10-18T17:26:43.554Z,49.03
2022-10-18T17:29:10.100Z,48.94
2022-10-18T17:31:36.887Z,48.83
2022-10-18T17:34:08.905Z,49.07
2022-10-18T17:36:35.647Z,48.90
2022-10-18T17:39:02.907Z,49.22
2022-10-18T17:41:29.432Z,49.02
2022-10-18T17:44:05.707Z,49.02
2022-10-18T17:46:32.209Z,49.46
2022-10-18T17:48:58.725Z,49.41
2022-10-18T17:51:25.174Z,49.24
2022-10-18T17:53:58.986Z,49.87
2022-10-18T17:56:30.987Z,49.72
2022-10-18T17:58:57.432Z,49.62
2022-10-18T18:01:23.985Z,50.07
2022-10-18T18:04:02.610Z,49.99
2022-10-18T18:06:33.790Z,50.35
2022-10-18T18:09:04.929Z,50.53
2022-10-18T18:11:31.450Z,50.67
2022-10-18T18:14:02.247Z,50.56
2022-10-18T18:16:29.952Z,50.74
2022-10-18T18:18:58.291Z,50.71
2022-10-18T18:21:26.453Z,50.79
2022-10-18T18:24:14.064Z,51.17
2022-10-18T18:26:40.778Z,51.03
2022-10-18T18:29:07.502Z,51.15
2022-10-18T18:31:38.845Z,51.16
2022-10-18T18:34:13.078Z,51.42
2022-10-18T18:36:40.288Z,51.31
2022-10-18T18:39:08.787Z,51.25
2022-10-18T18:41:37.318Z,51.48
2022-10-18T18:44:08.046Z,51.78
2022-10-18T18:46:38.903Z,51.56
2022-10-18T18:49:08.045Z,51.49
2022-10-18T18:51:37.393Z,51.48
2022-10-18T18:54:05.593Z,51.97
2022-10-18T18:56:32.209Z,52.16
2022-10-18T18:58:59.441Z,51.87
2022-10-18T19:01:29.654Z,51.84
2022-10-18T19:04:06.198Z,52.29
2022-10-18T19:06:38.671Z,52.03
2022-10-18T19:09:18.657Z,52.08
2022-10-18T19:11:46.971Z,52.09
2022-10-18T19:14:15.407Z,52.25
2022-10-18T19:16:47.816Z,52.35
2022-10-18T19:19:18.206Z,52.39
2022-10-18T19:21:51.375Z,52.79
2022-10-18T19:24:23.999Z,52.56
2022-10-18T19:26:53.163Z,52.69
2022-10-18T19:29:25.529Z,53.02
2022-10-18T19:31:53.844Z,52.88
2022-10-18T19:34:24.699Z,53.07
2022-10-18T19:36:51.664Z,53.33
2022-10-18T19:39:21.234Z,53.37
2022-10-18T19:41:50.618Z,53.06
2022-10-18T19:44:19.622Z,53.32
2022-10-18T19:46:46.870Z,53.57
2022-10-18T19:49:13.614Z,53.38
2022-10-18T19:51:40.934Z,53.78
2022-10-18T19:54:12.956Z,53.94
2022-10-18T19:56:41.635Z,54.09
2022-10-18T19:59:09.242Z,53.88
2022-10-18T20:01:35.914Z,54.07
2022-10-18T20:04:08.354Z,54.11
2022-10-18T20:06:36.449Z,54.22
2022-10-18T20:09:03.440Z,54.01
2022-10-18T20:11:30.274Z,54.42
2022-10-18T20:14:06.222Z,54.34
2022-10-18T20:16:34.111Z,54.28
2022-10-18T20:19:02.951Z,54.14
2022-10-18T20:21:35.348Z,54.29
2022-10-18T20:24:07.447Z,54.15
2022-10-18T20:26:35.705Z,54.29
2022-10-18T20:29:02.404Z,54.11
2022-10-18T20:31:31.043Z,54.31
2022-10-18T20:34:04.129Z,53.96
2022-10-18T20:36:32.482Z,54.17
2022-10-18T20:39:00.138Z,54.34
2022-10-18T20:41:29.274Z,53.77
2022-10-18T20:44:03.736Z,54.31
2022-10-18T20:46:32.571Z,53.91
2022-10-18T20:48:59.074Z,54.03
2022-10-18T20:51:25.714Z,54.22
2022-10-18T20:54:08.479Z,53.92
2022-10-18T20:56:36.547Z,54.40
2022-10-18T20:59:06.154Z,54.52
2022-10-18T21:01:34.214Z,54.67
2022-10-18T21:04:08.883Z,54.55
2022-10-18T21:06:42.606Z,54.26
2022-10-18T21:09:14.019Z,54.65
2022-10-18T21:11:42.970Z,54.47
2022-10-18T21:14:19.539Z,54.52
2022-10-18T21:16:46.595Z,54.92
2022-10-18T21:19:17.082Z,55.04
2022-10-18T21:21:45.903Z,54.97
2022-10-18T21:24:16.815Z,55.10
2022-10-18T21:26:43.876Z,54.91
2022-10-18T21:29:11.916Z,54.61
2022-10-18T21:31:40.228Z,55.18
2022-10-18T21:34:15.170Z,54.67
2022-10-18T21:36:43.506Z,54.99
2022-10-18T21:39:18.643Z,54.97
2022-10-18T21:41:45.985Z,55.29
2022-10-18T21:44:14.373Z,55.11
2022-10-18T21:46:43.087Z,55.15
2022-10-18T21:49:10.368Z,54.95
2022-10-18T21:51:37.686Z,55.08
2022-10-18T21:54:08.731Z,54.96
2022-10-18T21:56:35.794Z,55.43
2022-10-18T21:59:03.013Z,55.26
2022-10-18T22:01:32.486Z,55.07
2022-10-18T22:04:03.301Z,55.21
2022-10-18T22:06:32.780Z,55.19
2022-10-18T22:09:01.948Z,55.56
2022-10-18T22:11:33.361Z,55.58
2022-10-18T22:14:01.973Z,55.28
2022-10-18T22:16:28.628Z,55.42
2022-10-18T22:19:00.975Z,55.20
2022-10-18T22:21:28.116Z,55.44
2022-10-18T22:23:59.726Z,55.13
2022-10-18T22:26:28.853Z,55.27
2022-10-18T22:29:01.103Z,55.29
2022-10-18T22:31:30.523Z,54.97
2022-10-18T22:34:07.732Z,55.10
2022-10-18T22:36:35.029Z,55.10
2022-10-18T22:39:05.453Z,54.95
2022-10-18T22:41:32.588Z,55.13
2022-10-18T22:44:04.744Z,54.93
2022-10-18T22:46:32.901Z,55.17
2022-10-18T22:48:59.734Z,55.21
2022-10-18T22:51:26.314Z,55.48
2022-10-18T22:54:13.282Z,55.42
2022-10-18T22:56:39.839Z,55.47
2022-10-18T22:59:06.319Z,55.42
2022-10-18T23:01:32.837Z,55.78
2022-10-18T23:04:04.496Z,55.60
2022-10-18T23:06:33.577Z,55.59
2022-10-18T23:09:04.833Z,56.16
2022-10-18T23:11:32.183Z,55.82
2022-10-18T23:14:04.752Z,55.80
2022-10-18T23:16:31.761Z,55.60
2022-10-18T23:18:59.108Z,55.98
2022-10-18T23:21:27.932Z,55.90
2022-10-18T23:23:58.761Z,55.89
2022-10-18T23:26:27.806Z,56.22
2022-10-18T23:28:54.813Z,56.04
2022-10-18T23:31:30.268Z,55.96
2022-10-18T23:34:02.410Z,56.41
2022-10-18T23:36:29.290Z,55.83
2022-10-18T23:38:56.423Z,56.52
2022-10-18T23:41:23.973Z,56.21
2022-10-18T23:43:50.682Z,56.51
2022-10-18T23:46:20.946Z,56.28
2022-10-18T23:48:48.362Z,56.30
2022-10-18T23:51:15.692Z,56.64
2022-10-18T23:53:42.535Z,56.49
2022-10-18T23:56:14.506Z,56.49
2022-10-18T23:58:41.967Z,56.46
